createdAt,value
2022-09-07T00:00:39.888Z,91.90
2022-09-07T00:03:07.138Z,91.90
2022-09-07T00:05:34.358Z,91.90
2022-09-07T00:08:01.571Z,91.90
2022-09-07T00:10:29.032Z,92.00
2022-09-07T00:12:56.119Z,92.00
2022-09-07T00:15:23.434Z,92.00
2022-09-07T00:17:50.529Z,92.00
2022-09-07T00:20:17.672Z,91.90
2022-09-07T00:22:46.124Z,92.10
2022-09-07T00:25:13.305Z,92.10
2022-09-07T00:27:40.416Z,92.10
2022-09-07T00:30:07.722Z,92.10
2022-09-07T00:32:34.930Z,92.20
2022-09-07T00:35:02.106Z,92.20
2022-09-07T00:37:29.269Z,92.20
2022-09-07T00:39:56.581Z,92.20
2022-09-07T00:42:23.842Z,92.10
2022-09-07T00:45:03.177Z,92.10
2022-09-07T00:47:46.647Z,92.10
2022-09-07T00:50:32.232Z,92.10
2022-09-07T00:53:07.266Z,92.10
2022-09-07T00:55:35.297Z,92.10
2022-09-07T00:58:03.407Z,92.10
2022-09-07T01:00:30.808Z,92.00
2022-09-07T01:02:59.746Z,92.00
2022-09-07T01:05:53.634Z,92.00
2022-09-07T01:08:21.134Z,92.00
2022-09-07T01:10:48.350Z,92.00
2022-09-07T01:13:15.501Z,92.00
2022-09-07T01:15:54.767Z,92.00
2022-09-07T01:18:27.649Z,92.00
2022-09-07T01:21:02.148Z,92.00
2022-09-07T01:23:49.570Z,92.00
2022-09-07T01:26:16.716Z,92.00
2022-09-07T01:28:47.313Z,91.90
2022-09-07T01:31:17.610Z,92.00
2022-09-07T01:33:44.937Z,92.00
2022-09-07T01:36:18.033Z,92.00
2022-09-07T01:38:47.085Z,92.00
2022-09-07T01:41:14.134Z,92.00
2022-09-07T01:43:56.929Z,92.00
2022-09-07T01:46:28.280Z,92.00
2022-09-07T01:48:57.839Z,92.00
2022-09-07T01:51:28.563Z,92.00
2022-09-07T01:53:57.793Z,92.00
2022-09-07T01:56:30.103Z,92.10
2022-09-07T01:59:00.402Z,92.10
2022-09-07T02:01:38.836Z,92.10
2022-09-07T02:04:08.894Z,92.10
2022-09-07T02:06:49.814Z,92.10
2022-09-07T02:09:25.852Z,92.10
2022-09-07T02:11:53.515Z,92.10
2022-09-07T02:14:25.488Z,92.00
2022-09-07T02:16:57.094Z,92.10
2022-09-07T02:19:26.532Z,92.00
2022-09-07T02:21:57.848Z,92.00
2022-09-07T02:24:28.350Z,92.00
2022-09-07T02:26:55.907Z,92.00
2022-09-07T02:29:23.039Z,92.00
2022-09-07T02:31:52.039Z,92.00
2022-09-07T02:34:19.227Z,92.00
2022-09-07T02:36:47.821Z,92.00
2022-09-07T02:39:15.006Z,92.00
2022-09-07T02:41:43.708Z,92.00
2022-09-07T02:44:14.027Z,92.00
2022-09-07T02:46:50.128Z,92.00
2022-09-07T02:49:29.442Z,92.00
2022-09-07T02:52:07.315Z,92.00
2022-09-07T02:54:43.494Z,92.00
2022-09-07T02:57:17.754Z,92.00
2022-09-07T02:59:47.575Z,92.00
2022-09-07T03:02:37.737Z,92.00
2022-09-07T03:05:04.963Z,92.00
2022-09-07T03:07:36.024Z,92.00
2022-09-07T03:10:05.546Z,92.00
2022-09-07T03:12:47.447Z,92.00
2022-09-07T03:15:16.192Z,92.00
2022-09-07T03:17:44.693Z,92.00
2022-09-07T03:20:12.116Z,92.00
2022-09-07T03:22:39.304Z,92.00
2022-09-07T03:25:06.852Z,92.00
2022-09-07T03:27:34.098Z,92.00
2022-09-07T03:30:01.251Z,92.00
2022-09-07T03:32:32.498Z,92.00
2022-09-07T03:35:00.295Z,92.00
2022-09-07T03:37:27.546Z,92.00
2022-09-07T03:39:55.125Z,92.00
2022-09-07T03:42:22.362Z,92.00
2022-09-07T03:44:49.963Z,92.00
2022-09-07T03:47:17.837Z,92.00
2022-09-07T03:49:45.075Z,92.00
2022-09-07T03:52:12.491Z,92.00
2022-09-07T03:54:39.914Z,92.00
2022-09-07T03:57:07.163Z,92.00
2022-09-07T03:59:34.799Z,92.00
2022-09-07T04:02:02.198Z,92.00
2022-09-07T04:04:29.368Z,92.00
2022-09-07T04:06:56.452Z,91.90
2022-09-07T04:09:23.662Z,92.00
2022-09-07T04:11:50.775Z,91.90
2022-09-07T04:14:17.937Z,91.90
2022-09-07T04:16:45.513Z,91.90
2022-09-07T04:19:12.738Z,92.00
2022-09-07T04:21:40.204Z,92.10
2022-09-07T04:24:07.321Z,92.00
2022-09-07T04:26:35.618Z,92.00
2022-09-07T04:29:03.433Z,92.10
2022-09-07T04:31:30.925Z,92.20
2022-09-07T04:33:58.116Z,92.10
2022-09-07T04:36:25.200Z,92.00
2022-09-07T04:38:56.242Z,92.10
2022-09-07T04:41:23.547Z,92.10
2022-09-07T04:43:53.115Z,92.10
2022-09-07T04:46:22.112Z,92.10
2022-09-07T04:48:50.096Z,92.00
2022-09-07T04:51:17.866Z,92.00
2022-09-07T04:53:47.538Z,92.10
2022-09-07T04:56:16.947Z,92.00
2022-09-07T04:58:44.705Z,92.10
2022-09-07T05:01:12.877Z,92.10
2022-09-07T05:03:40.066Z,92.00
2022-09-07T05:06:07.832Z,92.00
2022-09-07T05:08:44.549Z,92.00
2022-09-07T05:11:12.684Z,92.00
2022-09-07T05:13:39.864Z,92.00
2022-09-07T05:16:10.871Z,92.00
2022-09-07T05:18:38.113Z,92.20
2022-09-07T05:21:12.239Z,92.00
2022-09-07T05:23:39.887Z,92.00
2022-09-07T05:26:07.088Z,92.00
2022-09-07T05:28:34.751Z,92.00
2022-09-07T05:31:21.010Z,92.00
2022-09-07T05:36:36.388Z,92.00
2022-09-07T05:39:03.904Z,92.00
2022-09-07T05:41:31.065Z,92.00
2022-09-07T05:46:45.684Z,92.00
2022-09-07T05:49:12.762Z,92.00
2022-09-07T05:51:40.063Z,92.00
2022-09-07T05:54:07.209Z,92.00
2022-09-07T05:56:37.481Z,92.00
2022-09-07T05:59:05.097Z,92.00
2022-09-07T06:01:32.489Z,92.00
2022-09-07T06:04:00.317Z,92.10
2022-09-07T06:06:27.493Z,92.20
2022-09-07T06:08:54.849Z,92.30
2022-09-07T06:11:22.652Z,92.30
2022-09-07T06:13:50.186Z,92.40
2022-09-07T06:16:18.372Z,92.40
2022-09-07T06:18:46.831Z,92.50
2022-09-07T06:21:15.415Z,92.50
2022-09-07T06:23:43.505Z,92.50
2022-09-07T06:26:11.221Z,93.00
2022-09-07T06:28:42.192Z,93.40
2022-09-07T06:31:10.968Z,93.30
2022-09-07T06:33:38.540Z,93.40
2022-09-07T06:36:27.286Z,93.50
2022-09-07T06:38:55.744Z,93.40
2022-09-07T06:44:12.280Z,93.40
2022-09-07T06:49:26.764Z,93.20
2022-09-07T06:51:53.906Z,93.20
2022-09-07T06:57:09.320Z,93.10
2022-09-07T06:59:37.561Z,93.20
2022-09-07T07:02:09.765Z,93.30
2022-09-07T07:04:40.879Z,93.30
2022-09-07T07:07:12.267Z,93.00
2022-09-07T07:09:40.083Z,93.30
2022-09-07T07:12:07.328Z,93.10
2022-09-07T07:14:37.401Z,93.10
2022-09-07T07:17:06.901Z,93.30
2022-09-07T07:19:34.032Z,93.70
2022-09-07T07:22:14.342Z,93.70
2022-09-07T07:24:48.325Z,93.70
2022-09-07T07:27:15.600Z,93.80
2022-09-07T07:29:43.164Z,93.40
2022-09-07T07:32:10.355Z,93.50
2022-09-07T07:34:37.633Z,93.80
2022-09-07T07:37:04.928Z,93.50
2022-09-07T07:42:21.029Z,93.70
2022-09-07T07:44:48.752Z,93.60
2022-09-07T07:47:15.961Z,93.70
2022-09-07T07:49:43.149Z,93.80
2022-09-07T07:54:57.371Z,94.10
2022-09-07T07:57:24.517Z,94.40
2022-09-07T07:59:51.750Z,94.40
2022-09-07T08:02:18.986Z,94.30
2022-09-07T08:04:46.283Z,94.40
2022-09-07T08:07:13.709Z,94.70
2022-09-07T08:09:41.512Z,94.70
2022-09-07T08:12:09.723Z,94.60
2022-09-07T08:14:40.941Z,94.60
2022-09-07T08:17:09.564Z,94.50
2022-09-07T08:19:36.991Z,94.70
2022-09-07T08:22:04.262Z,94.50
2022-09-07T08:24:31.947Z,94.40
2022-09-07T08:26:59.084Z,94.30
2022-09-07T08:29:27.166Z,94.50
2022-09-07T08:31:54.467Z,94.30
2022-09-07T08:34:21.929Z,94.30
2022-09-07T08:36:49.107Z,94.20
2022-09-07T08:39:16.330Z,94.30
2022-09-07T08:41:46.476Z,94.30
2022-09-07T08:44:18.702Z,94.50
2022-09-07T08:46:50.129Z,94.40
2022-09-07T08:49:32.093Z,94.30
2022-09-07T08:52:19.421Z,94.30
2022-09-07T08:54:52.208Z,94.30
2022-09-07T08:57:22.887Z,94.30
2022-09-07T09:00:11.143Z,94.30
2022-09-07T09:02:43.559Z,94.50
2022-09-07T09:05:18.180Z,95.80
2022-09-07T09:07:54.083Z,95.70
2022-09-07T09:10:27.394Z,95.50
2022-09-07T09:12:55.163Z,95.40
2022-09-07T09:15:22.455Z,95.30
2022-09-07T09:17:59.389Z,95.20
2022-09-07T09:20:39.775Z,95.20
2022-09-07T09:23:12.339Z,95.10
2022-09-07T09:25:40.678Z,95.00
2022-09-07T09:28:11.364Z,94.90
2022-09-07T09:30:39.004Z,94.80
2022-09-07T09:33:17.158Z,94.70
2022-09-07T09:35:45.520Z,94.70
2022-09-07T09:38:33.028Z,94.60
2022-09-07T09:41:03.150Z,94.50
2022-09-07T09:43:50.397Z,94.50
2022-09-07T09:46:20.742Z,94.40
2022-09-07T09:48:59.213Z,94.30
2022-09-07T09:54:23.849Z,94.20
2022-09-07T09:56:51.150Z,94.20
2022-09-07T10:05:25.846Z,94.20
2022-09-07T10:07:53.358Z,94.10
2022-09-07T10:10:20.652Z,94.10
2022-09-07T10:12:47.811Z,94.00
2022-09-07T10:15:41.703Z,94.00
2022-09-07T10:18:18.541Z,94.00
2022-09-07T10:20:45.611Z,94.00
2022-09-07T10:23:39.146Z,94.00
2022-09-07T10:26:27.325Z,94.00
2022-09-07T10:29:06.994Z,93.90
2022-09-07T10:31:37.828Z,93.80
2022-09-07T10:34:28.979Z,93.70
2022-09-07T10:36:56.025Z,93.60
2022-09-07T10:39:29.660Z,93.60
2022-09-07T10:42:09.230Z,93.50
2022-09-07T10:44:55.316Z,93.50
2022-09-07T10:47:37.850Z,93.50
2022-09-07T10:50:27.160Z,93.50
2022-09-07T10:53:41.725Z,93.50
2022-09-07T10:56:15.124Z,93.40
2022-09-07T10:59:02.964Z,93.40
2022-09-07T11:01:35.727Z,93.30
2022-09-07T11:04:12.039Z,93.30
2022-09-07T11:06:44.126Z,93.20
2022-09-07T11:09:19.454Z,93.20
2022-09-07T11:12:07.246Z,93.10
2022-09-07T11:14:41.153Z,93.10
2022-09-07T11:17:20.590Z,93.00
2022-09-07T11:19:54.682Z,93.00
2022-09-07T11:22:32.784Z,93.00
2022-09-07T11:27:54.655Z,93.00
2022-09-07T11:30:23.664Z,92.90
2022-09-07T11:33:02.991Z,92.90
2022-09-07T11:35:33.323Z,92.90
2022-09-07T11:38:05.341Z,92.90
2022-09-07T11:40:39.482Z,93.00
2022-09-07T11:43:15.378Z,93.00
2022-09-07T11:45:54.077Z,92.90
2022-09-07T11:48:47.359Z,92.90
2022-09-07T11:51:46.768Z,92.90
2022-09-07T11:54:31.900Z,92.90
2022-09-07T11:57:06.150Z,92.80
2022-09-07T11:59:52.211Z,92.80
2022-09-07T12:02:55.457Z,92.80
2022-09-07T12:05:19.504Z,92.70
2022-09-07T12:07:46.549Z,92.70
2022-09-07T12:10:29.395Z,92.70
2022-09-07T12:13:03.803Z,92.70
2022-09-07T12:15:52.169Z,92.70
2022-09-07T12:18:25.589Z,92.70
2022-09-07T12:20:52.836Z,92.60
2022-09-07T12:23:32.223Z,92.60
2022-09-07T12:26:18.676Z,92.60
2022-09-07T12:28:45.677Z,92.60
2022-09-07T12:31:12.836Z,92.50
2022-09-07T12:33:40.396Z,92.50
2022-09-07T12:36:33.629Z,92.50
2022-09-07T12:39:21.119Z,92.50
2022-09-07T12:41:50.131Z,92.40
2022-09-07T12:44:29.371Z,92.40
2022-09-07T12:46:57.576Z,92.40
2022-09-07T12:49:24.597Z,92.30
2022-09-07T12:52:06.833Z,92.20
2022-09-07T12:55:23.526Z,92.20
2022-09-07T12:58:03.838Z,92.20
2022-09-07T13:00:49.907Z,92.20
2022-09-07T13:06:03.999Z,92.20
2022-09-07T13:08:49.924Z,92.20
2022-09-07T13:11:26.688Z,92.10
2022-09-07T13:14:04.753Z,92.10
2022-09-07T13:17:16.003Z,92.00
2022-09-07T13:19:46.007Z,91.90
2022-09-07T13:22:32.293Z,91.90
2022-09-07T13:25:23.498Z,91.90
2022-09-07T13:27:52.124Z,91.80
2022-09-07T13:30:23.890Z,91.80
2022-09-07T13:35:38.465Z,91.70
2022-09-07T13:38:05.616Z,91.70
2022-09-07T13:40:38.353Z,91.70
2022-09-07T13:43:05.777Z,91.70
2022-09-07T13:46:02.630Z,91.80
2022-09-07T13:48:42.230Z,91.80
2022-09-07T13:51:29.075Z,91.80
2022-09-07T13:53:56.191Z,91.90
2022-09-07T13:56:26.582Z,91.90
2022-09-07T13:58:55.045Z,91.90
2022-09-07T14:01:23.507Z,91.90
2022-09-07T14:03:50.644Z,91.90
2022-09-07T14:06:20.678Z,91.90
2022-09-07T14:08:49.262Z,91.90
2022-09-07T14:11:22.615Z,91.90
2022-09-07T14:14:16.264Z,91.90
2022-09-07T14:16:48.227Z,91.90
2022-09-07T14:19:19.660Z,91.90
2022-09-07T14:21:53.907Z,91.90
2022-09-07T14:24:27.352Z,91.90
2022-09-07T14:26:54.812Z,91.90
2022-09-07T14:29:22.923Z,91.80
2022-09-07T14:31:50.779Z,91.80
2022-09-07T14:34:19.475Z,91.80
2022-09-07T14:36:46.859Z,91.80
2022-09-07T14:39:15.576Z,91.70
2022-09-07T14:41:43.423Z,91.70
2022-09-07T14:44:30.006Z,91.70
2022-09-07T14:46:58.072Z,91.60
2022-09-07T14:49:25.189Z,91.60
2022-09-07T14:51:52.853Z,91.60
2022-09-07T14:54:21.128Z,91.60
2022-09-07T14:57:03.509Z,91.60
2022-09-07T14:59:40.415Z,91.60
2022-09-07T15:02:22.005Z,91.60
2022-09-07T15:05:08.205Z,91.70
2022-09-07T15:07:40.880Z,91.60
2022-09-07T15:10:23.674Z,91.60
2022-09-07T15:12:52.212Z,91.60
2022-09-07T15:15:21.841Z,91.60
2022-09-07T15:17:49.444Z,91.60
2022-09-07T15:20:35.290Z,91.70
2022-09-07T15:23:04.300Z,90.60
2022-09-07T15:25:31.894Z,90.10
2022-09-07T15:27:59.098Z,89.70
2022-09-07T15:30:27.289Z,87.60
2022-09-07T15:32:56.911Z,89.00
2022-09-07T15:35:24.463Z,89.10
2022-09-07T15:38:59.434Z,86.60
2022-09-07T15:41:03.739Z,87.00
2022-09-07T15:43:28.916Z,86.30
2022-09-07T15:45:56.211Z,87.30
2022-09-07T15:48:25.300Z,86.50
2022-09-07T15:51:00.037Z,84.60
2022-09-07T15:56:14.550Z,83.90
2022-09-07T15:58:43.657Z,82.90
2022-09-07T16:03:58.364Z,81.70
2022-09-07T16:06:26.329Z,81.70
2022-09-07T16:08:53.814Z,81.30
2022-09-07T16:11:23.999Z,81.80
2022-09-07T16:13:55.944Z,82.00
2022-09-07T16:16:23.546Z,81.30
2022-09-07T16:19:14.200Z,81.70
2022-09-07T16:21:41.551Z,81.50
2022-09-07T16:24:11.647Z,81.00
2022-09-07T16:26:38.718Z,81.10
2022-09-07T16:29:05.808Z,81.60
2022-09-07T16:31:33.394Z,81.70
2022-09-07T16:34:01.679Z,83.70
2022-09-07T16:36:28.975Z,82.00
2022-09-07T16:38:57.188Z,81.20
2022-09-07T16:41:29.352Z,82.50
2022-09-07T16:43:56.522Z,82.10
2022-09-07T16:46:28.536Z,83.00
2022-09-07T16:48:57.364Z,83.60
2022-09-07T16:51:24.502Z,81.40
2022-09-07T16:53:52.779Z,82.10
2022-09-07T16:56:21.130Z,81.60
2022-09-07T16:58:49.688Z,81.70
2022-09-07T17:01:18.373Z,81.20
2022-09-07T17:03:45.886Z,81.30
2022-09-07T17:06:13.736Z,81.50
2022-09-07T17:08:41.385Z,82.00
2022-09-07T17:11:09.767Z,81.20
2022-09-07T17:13:37.768Z,81.80
2022-09-07T17:16:09.323Z,82.40
2022-09-07T17:21:24.129Z,82.50
2022-09-07T17:23:55.678Z,82.70
2022-09-07T17:26:26.903Z,82.60
2022-09-07T17:28:55.665Z,82.70
2022-09-07T17:34:12.519Z,83.20
2022-09-07T17:36:40.262Z,83.30
2022-09-07T17:39:16.792Z,82.80
2022-09-07T17:41:45.433Z,83.80
2022-09-07T17:44:12.525Z,84.00
2022-09-07T17:46:39.774Z,84.40
2022-09-07T17:49:11.966Z,83.60
2022-09-07T17:51:39.360Z,83.90
2022-09-07T17:54:10.884Z,83.60
2022-09-07T17:56:39.355Z,83.30
2022-09-07T18:01:54.037Z,83.60
2022-09-07T18:04:21.479Z,83.40
2022-09-07T18:06:48.847Z,82.80
2022-09-07T18:09:15.902Z,83.70
2022-09-07T18:11:45.739Z,83.10
2022-09-07T18:14:14.441Z,83.20
2022-09-07T18:16:43.396Z,83.50
2022-09-07T18:19:11.058Z,83.70
2022-09-07T18:21:39.287Z,83.80
2022-09-07T18:24:11.774Z,83.80
2022-09-07T18:26:40.449Z,83.50
2022-09-07T18:29:18.691Z,83.90
2022-09-07T18:31:53.947Z,83.40
2022-09-07T18:34:21.302Z,83.90
2022-09-07T18:36:48.420Z,84.00
2022-09-07T18:39:15.516Z,84.10
2022-09-07T18:41:42.658Z,84.70
2022-09-07T18:46:56.975Z,89.20
2022-09-07T18:49:25.015Z,90.00
2022-09-07T18:54:41.422Z,90.30
2022-09-07T18:57:08.648Z,90.00
2022-09-07T18:59:35.854Z,90.20
2022-09-07T19:02:06.203Z,90.30
2022-09-07T19:07:27.325Z,90.20
2022-09-07T19:09:56.190Z,90.20
2022-09-07T19:12:24.245Z,90.20
2022-09-07T19:14:51.623Z,90.20
2022-09-07T19:17:19.244Z,90.40
2022-09-07T19:19:46.695Z,90.20
2022-09-07T19:22:13.840Z,90.20
2022-09-07T19:24:41.075Z,89.80
2022-09-07T19:27:08.229Z,89.60
2022-09-07T19:29:35.390Z,89.50
2022-09-07T19:32:05.523Z,89.30
2022-09-07T19:34:42.881Z,89.20
2022-09-07T19:37:10.986Z,89.20
2022-09-07T19:39:38.297Z,89.00
2022-09-07T19:42:05.772Z,89.00
2022-09-07T19:44:33.009Z,89.00
2022-09-07T19:47:00.773Z,89.00
2022-09-07T19:49:28.512Z,88.90
2022-09-07T19:51:55.627Z,88.80
2022-09-07T19:54:22.707Z,88.90
2022-09-07T19:56:49.844Z,89.20
2022-09-07T19:59:19.541Z,89.30
2022-09-07T20:01:48.337Z,89.40
2022-09-07T20:04:20.305Z,89.40
2022-09-07T20:06:49.920Z,89.30
2022-09-07T20:09:18.263Z,89.30
2022-09-07T20:11:47.497Z,89.30
2022-09-07T20:14:15.208Z,89.30
2022-09-07T20:16:42.347Z,89.30
2022-09-07T20:19:11.498Z,89.30
2022-09-07T20:21:38.572Z,89.40
2022-09-07T20:24:05.834Z,89.40
2022-09-07T20:26:33.025Z,89.40
2022-09-07T20:31:47.506Z,89.30
2022-09-07T20:34:14.644Z,89.10
2022-09-07T20:36:41.743Z,89.20
2022-09-07T20:39:13.632Z,89.90
2022-09-07T20:41:40.685Z,89.70
2022-09-07T20:44:08.741Z,89.50
2022-09-07T20:46:35.998Z,89.50
2022-09-07T20:49:03.684Z,89.50
2022-09-07T20:51:30.944Z,89.40
2022-09-07T20:53:58.178Z,89.40
2022-09-07T20:56:26.148Z,89.40
2022-09-07T20:58:54.268Z,89.40
2022-09-07T21:01:21.771Z,89.40
2022-09-07T21:03:50.437Z,89.30
2022-09-07T21:06:18.332Z,89.40
2022-09-07T21:08:46.613Z,89.40
2022-09-07T21:11:18.086Z,89.40
2022-09-07T21:13:46.136Z,89.40
2022-09-07T21:16:14.300Z,89.50
2022-09-07T21:18:42.443Z,89.50
2022-09-07T21:21:25.197Z,90.00
2022-09-07T21:23:56.019Z,89.60
2022-09-07T21:26:23.764Z,89.70
2022-09-07T21:28:57.984Z,89.70
2022-09-07T21:31:25.524Z,89.80
2022-09-07T21:33:53.901Z,89.80
2022-09-07T21:36:21.245Z,89.80
2022-09-07T21:38:48.394Z,89.90
2022-09-07T21:41:16.413Z,90.00
2022-09-07T21:43:43.541Z,90.00
2022-09-07T21:46:11.852Z,90.00
2022-09-07T21:48:39.207Z,90.00
2022-09-07T21:51:06.744Z,90.00
2022-09-07T21:53:34.128Z,90.00
2022-09-07T21:56:02.555Z,90.00
2022-09-07T21:58:29.936Z,90.00
2022-09-07T22:00:57.450Z,89.90
2022-09-07T22:03:25.073Z,89.80
2022-09-07T22:05:52.258Z,89.80
2022-09-07T22:08:19.578Z,90.00
2022-09-07T22:10:46.577Z,90.00
2022-09-07T22:13:13.659Z,90.00
2022-09-07T22:15:41.420Z,90.00
2022-09-07T22:18:11.435Z,90.10
2022-09-07T22:20:38.594Z,90.10
2022-09-07T22:23:05.823Z,90.10
2022-09-07T22:25:33.189Z,90.10
2022-09-07T22:28:00.645Z,90.10
2022-09-07T22:30:27.796Z,90.20
2022-09-07T22:32:54.832Z,90.10
2022-09-07T22:35:23.759Z,90.20
2022-09-07T22:37:50.825Z,90.20
2022-09-07T22:40:17.908Z,90.20
2022-09-07T22:42:44.981Z,90.20
2022-09-07T22:45:12.001Z,90.20
2022-09-07T22:47:39.028Z,90.20
2022-09-07T22:50:06.329Z,90.30
2022-09-07T22:52:33.378Z,90.30
2022-09-07T22:55:00.425Z,90.30
2022-09-07T22:57:27.414Z,90.30
2022-09-07T22:59:54.438Z,90.30
2022-09-07T23:02:21.471Z,90.40
2022-09-07T23:04:48.574Z,90.40
2022-09-07T23:07:15.645Z,90.40
2022-09-07T23:09:42.654Z,90.40
2022-09-07T23:12:09.881Z,90.40
2022-09-07T23:14:36.991Z,90.40
2022-09-07T23:17:04.597Z,90.40
2022-09-07T23:19:31.747Z,90.40
2022-09-07T23:21:59.607Z,90.40
2022-09-07T23:24:26.633Z,90.40
2022-09-07T23:26:53.742Z,90.40
2022-09-07T23:29:21.168Z,90.40
2022-09-07T23:31:48.478Z,90.40
2022-09-07T23:34:15.723Z,90.50
2022-09-07T23:36:42.880Z,90.50
2022-09-07T23:39:09.966Z,90.50
2022-09-07T23:41:37.071Z,90.50
2022-09-07T23:44:04.188Z,90.60
2022-09-07T23:46:31.376Z,90.60
2022-09-07T23:48:58.544Z,90.60
2022-09-07T23:51:25.746Z,90.70
2022-09-07T23:53:53.452Z,90.70
2022-09-07T23:56:20.882Z,90.70
2022-09-07T23:58:47.980Z,90.70
